Time;durP1;ratioP1;P1;durP2;ratioP2;P2;SDS_P1;SDS_P2;PMS_P1;PMS_P2;Temp;Humidity;BMP_temperature;BMP_pressure;BME280_temperature;BME280_humidity;BME280_pressure;Samples;Min_cycle;Max_cycle;Signal;HPM_P1;HPM_P2
2023/06/15 00:00:30;;;;;;;4.35;2.78;;;;;;;17.09;100.00;98640.09;5054632;28;20108;-74
2023/06/15 00:02:56;;;;;;;4.00;2.60;;;;;;;17.22;100.00;98654.50;5045912;28;20367;-74
2023/06/15 00:05:21;;;;;;;6.10;2.95;;;;;;;17.14;100.00;98647.56;5049611;28;20111;-73
2023/06/15 00:07:46;;;;;;;5.72;2.83;;;;;;;17.21;100.00;98642.75;5060559;28;20025;-74
2023/06/15 00:10:12;;;;;;;3.90;2.90;;;;;;;17.12;100.00;98646.97;5055992;28;20082;-75
2023/06/15 00:12:37;;;;;;;3.83;2.92;;;;;;;16.89;100.00;98637.03;5064092;28;20035;-74
2023/06/15 00:15:03;;;;;;;3.92;2.63;;;;;;;16.79;100.00;98632.25;5068099;28;20025;-75
2023/06/15 00:17:31;;;;;;;3.60;2.50;;;;;;;16.71;100.00;98624.41;5043464;28;20024;-74
2023/06/15 00:20:00;;;;;;;2.85;2.45;;;;;;;16.68;100.00;98635.84;5056616;28;20132;-74
2023/06/15 00:22:26;;;;;;;3.67;2.70;;;;;;;16.74;100.00;98648.53;5035912;28;20025;-73
2023/06/15 00:24:52;;;;;;;6.25;2.60;;;;;;;16.51;100.00;98637.75;5037314;28;20033;-73
2023/06/15 00:27:17;;;;;;;3.55;2.60;;;;;;;16.37;100.00;98610.75;5072271;28;20486;-73
2023/06/15 00:29:43;;;;;;;4.63;2.75;;;;;;;16.43;100.00;98630.78;5075387;28;20028;-73
2023/06/15 00:32:08;;;;;;;7.03;2.65;;;;;;;16.46;100.00;98654.03;5045832;28;20032;-74
2023/06/15 00:34:33;;;;;;;5.15;2.88;;;;;;;16.25;100.00;98633.72;5063725;28;20751;-73
2023/06/15 00:36:59;;;;;;;6.03;2.80;;;;;;;16.12;100.00;98641.13;5054325;28;20020;-73
2023/06/15 00:39:24;;;;;;;5.25;2.90;;;;;;;16.13;100.00;98663.78;5070593;28;20031;-76
2023/06/15 00:41:50;;;;;;;4.28;2.70;;;;;;;15.98;100.00;98626.09;5057780;28;20020;-73
2023/06/15 00:44:15;;;;;;;3.10;2.40;;;;;;;16.03;100.00;98653.47;5073106;28;20024;-74
2023/06/15 00:46:40;;;;;;;5.78;3.05;;;;;;;15.99;100.00;98653.16;5058829;28;20032;-73
2023/06/15 00:49:06;;;;;;;4.85;2.90;;;;;;;15.74;100.00;98633.50;5062086;28;20021;-73
2023/06/15 00:51:32;;;;;;;7.90;3.28;;;;;;;15.85;100.00;98651.78;5055107;28;20040;-74
2023/06/15 00:53:59;;;;;;;3.13;2.67;;;;;;;15.84;100.00;98661.00;5055063;28;20020;-73
2023/06/15 00:56:29;;;;;;;4.88;2.55;;;;;;;15.73;100.00;98662.69;5051373;28;20063;-73
2023/06/15 00:58:54;;;;;;;;;;;;;;;15.76;100.00;98669.56;5042816;28;20043;-73
2023/06/15 01:01:19;;;;;;;4.60;2.72;;;;;;;15.63;100.00;98661.63;5062004;28;20333;-73
2023/06/15 01:03:45;;;;;;;5.20;3.30;;;;;;;15.51;100.00;98650.72;5053938;28;20032;-74
2023/06/15 01:06:14;;;;;;;8.02;2.58;;;;;;;15.54;100.00;98670.16;5046057;28;20040;-74
2023/06/15 01:08:42;;;;;;;3.33;2.63;;;;;;;15.49;100.00;98661.88;5065586;28;20700;-73
2023/06/15 01:11:07;;;;;;;7.38;2.60;;;;;;;15.61;100.00;98661.84;5052587;28;20122;-73
2023/06/15 01:13:34;;;;;;;4.47;2.60;;;;;;;15.40;100.00;98652.38;5063695;28;20116;-73
2023/06/15 01:16:06;;;;;;;4.25;2.92;;;;;;;15.45;100.00;98674.31;5064450;28;20043;-73
2023/06/15 01:18:33;;;;;;;4.82;2.85;;;;;;;15.28;100.00;98654.31;5067768;28;20031;-73
2023/06/15 01:21:01;;;;;;;5.22;2.80;;;;;;;15.47;100.00;98671.38;5053635;28;20058;-73
2023/06/15 01:23:41;;;;;;;4.88;3.25;;;;;;;15.43;100.00;98672.91;5052555;28;20028;-73
2023/06/15 01:26:10;;;;;;;3.78;2.78;;;;;;;15.36;100.00;98664.03;5043254;28;20056;-73
2023/06/15 01:28:40;;;;;;;3.97;2.80;;;;;;;15.32;100.00;98677.28;5067494;28;20043;-73
2023/06/15 01:31:06;;;;;;;5.78;2.75;;;;;;;15.26;100.00;98672.78;5050607;28;20036;-73
2023/06/15 01:33:32;;;;;;;9.23;3.20;;;;;;;15.25;100.00;98668.41;5045010;28;20032;-73
2023/06/15 01:35:58;;;;;;;3.95;2.58;;;;;;;15.16;100.00;98665.19;5050072;28;20039;-73
2023/06/15 01:38:26;;;;;;;6.25;2.78;;;;;;;15.15;100.00;98669.00;5070967;28;20029;-73
2023/06/15 01:40:53;;;;;;;3.95;2.70;;;;;;;15.06;100.00;98660.34;5071478;28;20025;-73
2023/06/15 01:43:24;;;;;;;4.72;3.08;;;;;;;15.04;100.00;98657.03;5035579;28;20124;-73
2023/06/15 01:45:51;;;;;;;4.45;2.83;;;;;;;15.11;100.00;98674.06;5050614;28;20115;-73
2023/06/15 01:48:18;;;;;;;4.78;3.25;;;;;;;15.09;100.00;98667.19;5064696;28;20028;-74
2023/06/15 01:50:43;;;;;;;4.22;3.08;;;;;;;15.04;100.00;98670.66;5048047;28;20025;-73
2023/06/15 01:53:09;;;;;;;6.50;2.97;;;;;;;14.98;100.00;98659.84;5054584;28;20035;-73
2023/06/15 01:55:35;;;;;;;8.73;2.88;;;;;;;15.06;100.00;98678.56;5052686;28;20111;-74
2023/06/15 01:58:00;;;;;;;7.20;2.90;;;;;;;15.08;100.00;98655.47;5052457;28;20020;-73
2023/06/15 02:00:26;;;;;;;6.75;3.00;;;;;;;15.06;100.00;98671.25;5054176;28;20025;-73
2023/06/15 02:02:51;;;;;;;3.78;2.72;;;;;;;15.03;100.00;98671.69;5052285;28;20394;-74
2023/06/15 02:05:17;;;;;;;5.95;3.15;;;;;;;14.88;100.00;98657.69;5061870;28;20027;-73
2023/06/15 02:07:42;;;;;;;3.97;2.70;;;;;;;14.79;100.00;98645.50;5068632;28;20036;-73
2023/06/15 02:10:08;;;;;;;3.85;3.03;;;;;;;14.87;100.00;98662.31;5061877;28;20029;-73
2023/06/15 02:12:34;;;;;;;5.45;2.75;;;;;;;14.69;100.00;98627.84;5035690;28;20028;-73
2023/06/15 02:15:01;;;;;;;4.20;3.17;;;;;;;14.82;100.00;98672.28;5070691;28;20028;-74
2023/06/15 02:17:30;;;;;;;6.30;3.15;;;;;;;14.69;100.00;98662.41;5055136;28;20032;-73
2023/06/15 02:19:56;;;;;;;5.15;2.92;;;;;;;14.71;100.00;98664.91;5046753;28;20111;-73
2023/06/15 02:22:22;;;;;;;4.07;2.97;;;;;;;14.63;100.00;98672.34;5044740;28;20035;-73
2023/06/15 02:24:47;;;;;;;4.53;3.20;;;;;;;14.51;100.00;98640.66;5057430;28;20104;-73
2023/06/15 02:27:13;;;;;;;4.45;3.08;;;;;;;14.65;100.00;98667.50;5050398;28;20059;-73
2023/06/15 02:29:38;;;;;;;4.15;2.80;;;;;;;14.56;100.00;98651.72;5070467;28;20386;-73
2023/06/15 02:32:04;;;;;;;3.85;2.78;;;;;;;14.59;100.00;98651.25;5062481;28;20049;-74
2023/06/15 02:34:30;;;;;;;5.70;2.72;;;;;;;14.55;100.00;98645.47;5070505;28;20090;-73
2023/06/15 02:36:56;;;;;;;5.68;3.08;;;;;;;14.45;100.00;98642.44;5052814;28;20625;-73
2023/06/15 02:39:21;;;;;;;4.32;2.92;;;;;;;14.53;100.00;98663.91;5052885;28;20028;-73
2023/06/15 02:41:46;;;;;;;4.65;3.10;;;;;;;14.29;100.00;98634.94;5070252;28;20020;-73
2023/06/15 02:44:12;;;;;;;6.25;2.80;;;;;;;14.27;100.00;98647.94;5063375;28;20035;-75
2023/06/15 02:46:37;;;;;;;4.25;2.67;;;;;;;14.07;100.00;98632.72;5050759;28;20037;-73
2023/06/15 02:49:03;;;;;;;4.40;3.30;;;;;;;13.97;100.00;98638.72;5057248;28;20024;-73
2023/06/15 02:51:28;;;;;;;4.50;3.15;;;;;;;13.81;100.00;98648.34;5075380;28;20382;-73
2023/06/15 02:53:54;;;;;;;4.72;3.13;;;;;;;13.68;100.00;98664.81;5075516;28;20071;-73
2023/06/15 02:56:20;;;;;;;6.00;3.50;;;;;;;13.54;100.00;98671.44;5075042;28;20110;-72
2023/06/15 02:58:54;;;;;;;5.95;3.35;;;;;;;13.56;100.00;98693.78;5052809;28;20032;-74
2023/06/15 03:01:21;;;;;;;8.50;3.08;;;;;;;13.29;100.00;98664.16;5049742;28;20376;-73
2023/06/15 03:03:47;;;;;;;5.28;3.20;;;;;;;13.38;100.00;98687.25;5052379;28;20017;-73
2023/06/15 03:06:14;;;;;;;5.57;3.10;;;;;;;13.24;100.00;98682.19;5072975;28;20069;-73
2023/06/15 03:08:40;;;;;;;5.55;3.50;;;;;;;13.11;100.00;98680.41;5065708;28;20039;-73
2023/06/15 03:11:06;;;;;;;4.88;3.22;;;;;;;12.96;100.00;98683.44;5055599;28;20024;-73
2023/06/15 03:13:32;;;;;;;4.68;3.33;;;;;;;12.94;100.00;98699.97;5044747;28;20025;-73
2023/06/15 03:16:00;;;;;;;5.07;3.40;;;;;;;12.84;100.00;98696.09;5056716;28;20025;-73
2023/06/15 03:18:26;;;;;;;5.05;3.85;;;;;;;12.86;100.00;98700.25;5056884;28;20103;-73
2023/06/15 03:20:52;;;;;;;4.63;3.20;;;;;;;12.71;100.00;98692.41;5046061;28;20132;-73
2023/06/15 03:23:21;;;;;;;6.35;3.55;;;;;;;12.85;100.00;98706.72;5048638;28;20036;-73
2023/06/15 03:25:46;;;;;;;4.20;3.17;;;;;;;12.65;100.00;98684.31;5056945;28;20078;-73
2023/06/15 03:28:12;;;;;;;4.43;3.35;;;;;;;12.78;100.00;98713.25;5064820;28;20032;-73
2023/06/15 03:30:40;;;;;;;5.53;3.42;;;;;;;12.73;100.00;98711.19;5051154;28;20078;-73
2023/06/15 03:33:08;;;;;;;14.07;3.83;;;;;;;12.59;100.00;98685.19;5057689;28;20108;-73
2023/06/15 03:35:34;;;;;;;4.90;3.50;;;;;;;12.78;100.00;98722.22;5068783;28;20048;-73
2023/06/15 03:38:00;;;;;;;7.00;3.40;;;;;;;12.82;100.00;98728.06;5074247;28;20521;-73
2023/06/15 03:40:25;;;;;;;6.63;3.40;;;;;;;12.77;100.00;98715.13;5070002;28;20398;-73
2023/06/15 03:42:50;;;;;;;5.47;3.53;;;;;;;12.85;100.00;98714.03;5061132;28;20425;-72
2023/06/15 03:45:17;;;;;;;5.15;3.45;;;;;;;12.89;100.00;98712.53;5066531;28;20020;-74
2023/06/15 03:47:44;;;;;;;7.00;3.58;;;;;;;12.89;100.00;98704.38;5049964;28;20111;-75
2023/06/15 03:50:11;;;;;;;4.35;3.45;;;;;;;12.98;100.00;98707.69;5046575;28;20070;-71
2023/06/15 03:52:36;;;;;;;5.28;3.67;;;;;;;13.10;100.00;98725.75;5052238;28;20017;-72
2023/06/15 03:55:01;;;;;;;6.82;3.63;;;;;;;13.11;100.00;98715.72;5056044;28;20082;-74
2023/06/15 03:57:27;;;;;;;4.72;3.40;;;;;;;13.10;100.00;98719.50;5073739;28;20484;-73
2023/06/15 03:59:52;;;;;;;5.78;3.53;;;;;;;13.15;100.00;98725.06;5054109;28;20056;-71
2023/06/15 04:02:17;;;;;;;6.43;3.58;;;;;;;13.39;100.00;98737.03;5065196;28;20023;-72
2023/06/15 04:04:43;;;;;;;5.68;3.58;;;;;;;13.42;100.00;98733.03;5042199;28;20043;-72
2023/06/15 04:07:09;;;;;;;6.78;3.83;;;;;;;13.34;100.00;98720.56;5048163;28;20028;-73
2023/06/15 04:09:34;;;;;;;5.32;3.13;;;;;;;13.44;100.00;98739.91;5045751;28;20418;-73
2023/06/15 04:12:00;;;;;;;4.78;3.60;;;;;;;13.55;100.00;98743.78;5073363;28;20628;-73
2023/06/15 04:14:25;;;;;;;4.82;3.63;;;;;;;13.50;100.00;98741.72;5072080;28;20120;-73
2023/06/15 04:16:51;;;;;;;7.50;3.75;;;;;;;13.56;100.00;98738.09;5062478;28;20021;-77
2023/06/15 04:19:17;;;;;;;6.40;3.33;;;;;;;13.60;100.00;98757.53;5042903;28;20024;-75
2023/06/15 04:21:42;;;;;;;8.43;3.40;;;;;;;13.62;100.00;98752.69;5067425;28;20478;-72
2023/06/15 04:24:07;;;;;;;7.97;3.22;;;;;;;13.80;100.00;98749.16;5067933;28;20406;-73
2023/06/15 04:26:33;;;;;;;6.43;3.47;;;;;;;13.91;100.00;98753.88;5050977;28;20040;-77
2023/06/15 04:28:58;;;;;;;4.82;3.40;;;;;;;13.94;100.00;98752.59;5052125;28;20029;-79
2023/06/15 04:31:24;;;;;;;6.80;3.58;;;;;;;14.07;100.00;98762.47;5043514;28;20049;-78
2023/06/15 04:33:50;;;;;;;6.43;3.40;;;;;;;14.19;100.00;98777.81;5063478;28;20028;-79
2023/06/15 04:36:16;;;;;;;6.40;3.42;;;;;;;14.18;100.00;98770.72;5058396;28;20024;-80
2023/06/15 04:38:49;;;;;;;4.80;3.60;;;;;;;14.34;100.00;98769.25;5044087;28;20020;-74
2023/06/15 04:41:18;;;;;;;5.78;3.60;;;;;;;14.36;100.00;98750.00;5048189;28;20021;-75
2023/06/15 04:43:44;;;;;;;4.78;3.50;;;;;;;14.64;100.00;98782.91;5046498;28;20048;-74
2023/06/15 04:46:11;;;;;;;6.03;3.50;;;;;;;14.63;100.00;98775.81;5068351;28;20040;-76
2023/06/15 04:48:36;;;;;;;6.05;3.58;;;;;;;14.58;100.00;98764.78;5042182;28;20523;-78
2023/06/15 04:51:02;;;;;;;7.00;3.90;;;;;;;14.65;100.00;98781.88;5048904;28;20032;-73
2023/06/15 04:53:27;;;;;;;6.55;3.65;;;;;;;14.56;100.00;98772.34;5045587;28;20379;-75
2023/06/15 04:55:53;;;;;;;6.70;3.50;;;;;;;14.70;100.00;98781.19;5053506;28;20098;-74
2023/06/15 04:58:18;;;;;;;5.65;3.72;;;;;;;14.72;100.00;98742.81;5043275;28;20031;-75
2023/06/15 05:00:44;;;;;;;5.72;3.72;;;;;;;14.97;100.00;98767.19;5054706;28;20115;-73
2023/06/15 05:03:11;;;;;;;7.22;3.90;;;;;;;15.18;100.00;98784.88;5063967;28;20029;-73
2023/06/15 05:05:36;;;;;;;4.53;3.58;;;;;;;15.04;100.00;98757.84;5048115;28;20122;-73
2023/06/15 05:08:02;;;;;;;6.43;3.92;;;;;;;15.25;100.00;98763.81;5037696;28;20124;-73
2023/06/15 05:10:28;;;;;;;10.27;4.30;;;;;;;15.35;100.00;98774.94;5039264;28;20043;-74
2023/06/15 05:12:54;;;;;;;6.70;4.32;;;;;;;15.48;100.00;98780.19;5064844;28;20478;-73
2023/06/15 05:15:19;;;;;;;6.63;4.15;;;;;;;15.66;100.00;98792.88;5044940;28;20536;-72
2023/06/15 05:17:44;;;;;;;9.02;3.90;;;;;;;15.81;100.00;98789.72;5047492;28;20036;-73
2023/06/15 05:20:10;;;;;;;9.60;3.72;;;;;;;15.98;100.00;98767.97;5064880;28;20082;-73
2023/06/15 05:22:35;;;;;;;4.97;3.60;;;;;;;16.29;100.00;98771.38;5051804;28;20024;-74
2023/06/15 05:25:02;;;;;;;5.65;3.47;;;;;;;16.54;100.00;98777.34;5062597;28;20027;-74
2023/06/15 05:27:28;;;;;;;10.90;3.78;;;;;;;16.78;100.00;98780.84;5046232;28;20028;-74
2023/06/15 05:29:54;;;;;;;5.43;3.15;;;;;;;17.02;100.00;98783.47;5057362;28;20047;-74
2023/06/15 05:32:19;;;;;;;7.18;3.30;;;;;;;17.16;100.00;98779.38;5051038;28;20119;-74
2023/06/15 05:34:44;;;;;;;6.38;3.10;;;;;;;17.44;100.00;98799.50;5064165;28;20114;-75
2023/06/15 05:37:10;;;;;;;5.45;3.03;;;;;;;17.54;100.00;98783.25;5041771;28;20063;-74
2023/06/15 05:39:35;;;;;;;6.32;3.00;;;;;;;17.71;100.00;98791.44;5060454;28;20036;-75
2023/06/15 05:42:01;;;;;;;4.28;2.90;;;;;;;17.89;100.00;98798.59;5067261;28;20489;-75
2023/06/15 05:44:26;;;;;;;4.10;2.95;;;;;;;18.06;100.00;98796.66;5045202;28;20020;-75
2023/06/15 05:46:52;;;;;;;6.85;3.38;;;;;;;18.13;100.00;98797.31;5066722;28;20549;-75
2023/06/15 05:49:18;;;;;;;4.20;3.00;;;;;;;18.31;100.00;98796.19;5044996;28;20020;-78
2023/06/15 05:51:43;;;;;;;4.60;3.17;;;;;;;18.48;100.00;98795.31;5067482;28;20040;-76
2023/06/15 05:54:09;;;;;;;7.35;2.80;;;;;;;18.70;100.00;98798.03;5054162;28;20402;-75
2023/06/15 05:56:34;;;;;;;4.28;2.75;;;;;;;18.98;100.00;98806.03;5062499;28;20067;-77
2023/06/15 05:59:00;;;;;;;4.47;3.13;;;;;;;19.11;100.00;98796.59;5054535;28;20060;-76
2023/06/15 06:01:25;;;;;;;5.38;3.05;;;;;;;19.26;100.00;98806.88;5047390;28;20020;-76
2023/06/15 06:03:50;;;;;;;4.70;2.85;;;;;;;19.38;100.00;98798.47;5049268;28;20028;-75
2023/06/15 06:06:16;;;;;;;5.70;3.50;;;;;;;19.44;100.00;98787.28;5061075;28;20016;-75
2023/06/15 06:08:41;;;;;;;4.30;3.03;;;;;;;19.61;100.00;98770.66;5067173;28;20553;-75
2023/06/15 06:11:08;;;;;;;4.60;3.08;;;;;;;19.85;100.00;98782.13;5034789;28;20021;-75
2023/06/15 06:13:34;;;;;;;4.35;2.88;;;;;;;20.21;100.00;98801.56;5054159;28;20028;-77
2023/06/15 06:16:00;;;;;;;4.43;3.03;;;;;;;20.33;100.00;98796.69;5071348;28;20033;-76
2023/06/15 06:18:26;;;;;;;6.28;3.35;;;;;;;20.53;100.00;98806.13;5040028;28;20441;-80
2023/06/15 06:20:51;;;;;;;7.78;3.20;;;;;;;20.71;100.00;98799.34;5046895;28;20013;-73
2023/06/15 06:23:16;;;;;;;5.85;2.90;;;;;;;20.87;100.00;98800.22;5068679;28;20032;-72
2023/06/15 06:25:41;;;;;;;6.93;3.30;;;;;;;20.73;100.00;98805.41;5053860;28;20462;-72
2023/06/15 06:28:07;;;;;;;5.07;3.00;;;;;;;20.87;100.00;98795.53;5044033;28;20029;-77
2023/06/15 06:30:32;;;;;;;4.93;3.55;;;;;;;20.74;100.00;98791.38;5070748;28;20078;-76
2023/06/15 06:32:58;;;;;;;4.45;3.38;;;;;;;20.86;100.00;98804.09;5057625;28;20074;-76
2023/06/15 06:35:23;;;;;;;5.07;3.28;;;;;;;21.09;100.00;98748.56;5074259;28;20036;-78
2023/06/15 06:37:48;;;;;;;6.53;2.88;;;;;;;21.38;100.00;98797.59;5047352;28;20025;-76
2023/06/15 06:40:13;;;;;;;5.38;3.35;;;;;;;21.42;96.77;98799.50;5067763;28;20021;-81
2023/06/15 06:42:39;;;;;;;5.05;3.42;;;;;;;21.77;91.66;98811.66;5052653;28;20044;-73
2023/06/15 06:45:05;;;;;;;6.53;3.45;;;;;;;21.33;92.15;98808.56;5053414;28;20103;-72
2023/06/15 06:47:30;;;;;;;6.07;3.30;;;;;;;21.94;92.06;98814.09;5068083;28;20107;-73
2023/06/15 06:49:59;;;;;;;5.63;3.10;;;;;;;22.54;88.24;98809.56;5063038;28;20123;-72
2023/06/15 06:52:24;;;;;;;4.43;3.05;;;;;;;23.81;83.29;98809.88;5048006;28;20029;-72
2023/06/15 06:54:49;;;;;;;3.70;3.00;;;;;;;25.83;72.21;98809.81;5048481;28;20456;-73
2023/06/15 06:57:15;;;;;;;3.63;2.45;;;;;;;29.17;59.99;98810.81;5053372;28;20536;-73
2023/06/15 06:59:40;;;;;;;6.57;2.97;;;;;;;31.03;50.51;98809.69;5047109;28;20548;-72
2023/06/15 07:02:06;;;;;;;3.15;2.55;;;;;;;33.03;46.48;98812.44;5036087;28;20478;-73
2023/06/15 07:04:31;;;;;;;3.33;2.60;;;;;;;32.73;42.46;98793.88;5064914;28;20078;-72
2023/06/15 07:06:56;;;;;;;3.58;2.70;;;;;;;33.25;41.20;98808.28;5056906;28;20335;-72
2023/06/15 07:09:21;;;;;;;4.97;2.97;;;;;;;31.40;42.13;98821.13;5065480;28;20035;-72
2023/06/15 07:11:47;;;;;;;3.47;2.60;;;;;;;32.50;41.21;98807.53;5057414;28;20029;-72
2023/06/15 07:14:12;;;;;;;4.07;2.97;;;;;;;33.43;40.56;98797.59;5050998;28;20035;-72
2023/06/15 07:16:37;;;;;;;4.13;3.00;;;;;;;33.01;39.41;98809.13;5056581;28;20032;-72
2023/06/15 07:19:03;;;;;;;3.40;2.53;;;;;;;33.62;39.68;98803.44;5046019;28;20137;-71
2023/06/15 07:21:28;;;;;;;4.15;2.60;;;;;;;34.17;37.93;98793.34;5050279;28;20040;-71
2023/06/15 07:23:53;;;;;;;4.90;2.55;;;;;;;35.60;37.52;98812.00;5051025;28;20032;-70
2023/06/15 07:26:19;;;;;;;5.57;2.70;;;;;;;35.74;35.95;98801.03;5058932;28;20028;-71
2023/06/15 07:28:44;;;;;;;4.20;2.58;;;;;;;36.49;34.97;98795.97;5051740;28;20119;-71
2023/06/15 07:31:09;;;;;;;3.50;2.40;;;;;;;35.79;35.06;98809.19;5071289;28;20031;-70
2023/06/15 07:33:35;;;;;;;5.30;2.15;;;;;;;37.69;33.10;98803.81;5052764;28;20028;-71
2023/06/15 07:36:00;;;;;;;3.63;2.55;;;;;;;36.85;33.62;98803.84;5074338;28;20024;-71
2023/06/15 07:38:25;;;;;;;3.17;2.58;;;;;;;37.32;33.03;98813.00;5056442;28;20122;-72
2023/06/15 07:40:51;;;;;;;5.90;2.63;;;;;;;38.34;31.96;98794.03;5056503;28;20107;-72
2023/06/15 07:43:16;;;;;;;7.38;2.58;;;;;;;37.22;32.16;98793.94;5055224;28;20024;-72
2023/06/15 07:45:44;;;;;;;3.47;2.25;;;;;;;38.76;31.79;98784.31;5074131;28;20021;-73
2023/06/15 07:48:10;;;;;;;3.70;2.28;;;;;;;40.31;29.84;98801.63;5051358;28;20028;-71
2023/06/15 07:50:35;;;;;;;4.60;2.42;;;;;;;40.01;29.81;98801.13;5069326;28;20032;-73
2023/06/15 07:53:01;;;;;;;5.03;2.33;;;;;;;40.68;29.72;98794.75;5054349;28;20028;-71
2023/06/15 07:55:26;;;;;;;6.22;2.60;;;;;;;40.11;28.66;98791.84;5059827;28;20306;-72
2023/06/15 07:57:51;;;;;;;3.25;2.30;;;;;;;38.77;30.88;98800.06;5055267;28;20021;-72
2023/06/15 08:00:17;;;;;;;3.30;2.10;;;;;;;38.48;31.44;98797.00;5072565;28;20441;-72
2023/06/15 08:02:43;;;;;;;2.90;2.40;;;;;;;38.14;30.40;98791.41;5047929;28;20513;-73
2023/06/15 08:05:08;;;;;;;4.93;2.55;;;;;;;38.93;30.36;98780.81;5071145;28;20032;-71
2023/06/15 08:07:33;;;;;;;4.60;2.30;;;;;;;39.66;29.40;98782.81;5054575;28;20024;-71
2023/06/15 08:09:59;;;;;;;3.50;2.33;;;;;;;40.10;29.00;98793.06;5072871;28;20528;-71
2023/06/15 08:12:25;;;;;;;3.92;2.20;;;;;;;40.28;28.97;98774.09;5047485;28;20283;-73
2023/06/15 08:14:50;;;;;;;3.20;2.38;;;;;;;41.50;28.21;98796.63;5071779;28;20093;-72
2023/06/15 08:17:16;;;;;;;4.40;2.25;;;;;;;41.81;27.62;98792.03;5071607;28;20024;-72
2023/06/15 08:19:41;;;;;;;2.45;2.13;;;;;;;41.51;27.06;98788.94;5042478;28;20040;-72
2023/06/15 08:22:06;;;;;;;3.65;2.10;;;;;;;40.54;28.45;98794.75;5055738;28;20020;-74
2023/06/15 08:24:31;;;;;;;2.87;1.90;;;;;;;39.86;28.80;98791.81;5072115;28;20497;-71
2023/06/15 08:26:58;;;;;;;4.97;2.30;;;;;;;41.62;28.04;98786.84;5063701;28;20279;-73
2023/06/15 08:29:23;;;;;;;5.30;2.20;;;;;;;41.55;27.97;98784.84;5061832;28;20331;-73
2023/06/15 08:31:49;;;;;;;2.17;1.77;;;;;;;40.76;27.54;98772.88;5053402;28;20112;-73
2023/06/15 08:34:14;;;;;;;2.38;1.80;;;;;;;39.41;28.80;98782.72;5046869;28;20687;-73
2023/06/15 08:36:40;;;;;;;2.95;2.10;;;;;;;39.40;28.03;98776.22;5058886;28;20025;-73
2023/06/15 08:39:05;;;;;;;6.13;1.80;;;;;;;40.62;27.85;98779.34;5072269;28;20027;-74
2023/06/15 08:41:31;;;;;;;6.20;2.28;;;;;;;40.02;28.02;98780.09;5053588;28;20020;-75
2023/06/15 08:43:57;;;;;;;7.80;2.20;;;;;;;40.72;27.35;98777.75;5062577;28;20104;-74
2023/06/15 08:46:25;;;;;;;2.28;2.00;;;;;;;38.90;28.33;98772.31;5063640;28;20151;-74
2023/06/15 08:48:53;;;;;;;3.85;1.90;;;;;;;38.99;29.05;98782.06;5068285;28;20071;-74
2023/06/15 08:51:22;;;;;;;2.75;1.77;;;;;;;39.35;27.85;98770.94;5066715;28;20024;-74
2023/06/15 08:53:48;;;;;;;2.47;1.92;;;;;;;41.67;26.70;98775.06;5072748;28;20024;-76
2023/06/15 08:56:13;;;;;;;5.03;2.20;;;;;;;40.58;26.85;98772.84;5069022;28;20068;-75
2023/06/15 08:58:49;;;;;;;5.00;2.05;;;;;;;41.42;26.09;98780.81;5059557;28;20041;-73
2023/06/15 09:01:18;;;;;;;4.20;1.83;;;;;;;40.72;26.80;98775.72;5064898;28;20077;-72
2023/06/15 09:03:44;;;;;;;1.92;1.67;;;;;;;41.68;26.37;98764.50;5040456;28;20118;-74
2023/06/15 09:06:10;;;;;;;2.88;1.75;;;;;;;42.94;25.29;98762.34;5049236;28;20067;-74
2023/06/15 09:08:35;;;;;;;2.50;1.70;;;;;;;42.61;24.98;98746.81;5063955;28;20083;-70
2023/06/15 09:11:08;;;;;;;4.07;1.55;;;;;;;41.80;25.34;98772.56;5055394;28;20596;-70
2023/06/15 09:13:34;;;;;;;2.45;1.70;;;;;;;41.83;25.67;98771.72;5061112;28;20052;-70
2023/06/15 09:16:01;;;;;;;2.78;1.60;;;;;;;41.48;26.36;98767.81;5059254;28;20071;-70
2023/06/15 09:18:26;;;;;;;3.35;1.95;;;;;;;38.94;27.72;98773.97;5061078;28;20435;-70
2023/06/15 09:20:58;;;;;;;2.78;1.60;;;;;;;35.12;30.75;98770.78;5060775;28;20036;-70
2023/06/15 09:23:24;;;;;;;2.42;1.88;;;;;;;33.48;32.99;98777.72;5065928;28;20021;-70
2023/06/15 09:25:54;;;;;;;2.60;1.83;;;;;;;32.13;34.20;98775.84;5066726;28;20312;-70
2023/06/15 09:28:27;;;;;;;5.05;1.88;;;;;;;33.67;34.09;98771.47;5064830;28;20501;-73
2023/06/15 09:30:59;;;;;;;4.97;1.90;;;;;;;35.22;31.85;98755.31;5066634;28;20111;-73
2023/06/15 09:33:25;;;;;;;3.45;2.00;;;;;;;34.06;32.52;98764.16;5064502;28;20127;-73
2023/06/15 09:35:59;;;;;;;3.05;1.83;;;;;;;32.36;34.23;98773.44;5068061;28;20024;-72
2023/06/15 09:38:26;;;;;;;3.08;2.40;;;;;;;30.80;35.60;98765.28;5072875;28;20407;-73
2023/06/15 09:40:53;;;;;;;3.97;2.10;;;;;;;30.59;35.60;98775.59;5052917;28;20024;-71
2023/06/15 09:43:19;;;;;;;3.60;2.20;;;;;;;30.36;36.55;98761.09;5053650;28;20024;-71
2023/06/15 09:45:49;;;;;;;3.47;2.20;;;;;;;32.83;34.41;98761.75;5071491;28;20024;-70
2023/06/15 09:48:15;;;;;;;2.35;1.88;;;;;;;36.62;31.25;98755.16;5054513;28;20027;-75
2023/06/15 09:50:40;;;;;;;3.57;2.10;;;;;;;39.43;28.83;98757.63;5067343;28;20029;-71
2023/06/15 09:53:10;;;;;;;8.52;2.72;;;;;;;41.03;27.49;98744.88;5070425;28;20670;-72
2023/06/15 09:55:36;;;;;;;3.33;1.98;;;;;;;41.57;26.04;98771.03;5052741;28;20379;-71
2023/06/15 09:58:02;;;;;;;2.33;2.00;;;;;;;41.83;25.41;98771.72;5063018;28;20048;-74
2023/06/15 10:00:27;;;;;;;2.08;1.88;;;;;;;43.22;24.41;98769.78;5070863;28;20067;-71
2023/06/15 10:02:56;;;;;;;3.80;1.90;;;;;;;42.76;24.34;98761.72;5060847;28;20043;-72
2023/06/15 10:05:30;;;;;;;5.45;1.85;;;;;;;44.42;23.82;98764.09;5070109;28;20282;-75
2023/06/15 10:07:56;;;;;;;1.60;1.50;;;;;;;41.77;24.36;98762.03;5066181;28;20024;-72
2023/06/15 10:10:23;;;;;;;2.03;1.70;;;;;;;38.22;26.66;98771.72;5070701;28;20050;-71
2023/06/15 10:12:52;;;;;;;3.97;1.90;;;;;;;40.25;27.04;98783.41;5064660;28;20541;-75
2023/06/15 10:15:20;;;;;;;4.28;2.25;;;;;;;40.83;25.73;98775.69;5045135;28;20024;-72
2023/06/15 10:17:48;;;;;;;2.58;1.90;;;;;;;41.37;24.99;98776.41;5063872;28;20052;-72
2023/06/15 10:20:18;;;;;;;2.92;1.70;;;;;;;41.33;24.68;98777.63;5076066;28;20051;-73
2023/06/15 10:22:48;;;;;;;4.03;1.77;;;;;;;42.16;24.49;98772.34;5071476;28;20074;-72
2023/06/15 10:25:14;;;;;;;2.78;1.67;;;;;;;45.08;23.05;98777.59;5043499;28;20058;-73
2023/06/15 10:27:40;;;;;;;5.68;2.70;;;;;;;43.57;23.27;98773.44;5063240;28;20059;-74
2023/06/15 10:30:23;;;;;;;2.55;1.85;;;;;;;45.01;22.23;98778.53;5057826;28;20068;-74
2023/06/15 10:32:49;;;;;;;4.60;1.77;;;;;;;43.82;23.24;98775.16;5067492;28;20033;-74
2023/06/15 10:35:23;;;;;;;3.65;1.70;;;;;;;43.92;23.52;98771.34;5050930;28;20081;-73
2023/06/15 10:38:03;;;;;;;2.10;1.70;;;;;;;45.61;22.11;98758.56;5063838;28;20025;-72
2023/06/15 10:40:36;;;;;;;1.75;1.50;;;;;;;45.33;21.75;98753.44;5062918;28;20647;-72
2023/06/15 10:43:02;;;;;;;2.78;1.67;;;;;;;40.20;23.90;98775.25;5069131;28;22009;-73
2023/06/15 10:45:34;;;;;;;2.80;1.70;;;;;;;36.95;26.13;98762.91;5070178;28;20050;-72
2023/06/15 10:48:02;;;;;;;1.60;1.50;;;;;;;35.37;28.27;98769.69;5060791;28;20020;-72
2023/06/15 10:50:42;;;;;;;2.30;1.75;;;;;;;38.24;26.32;98763.66;5040046;28;20021;-72
2023/06/15 10:53:26;;;;;;;4.88;1.77;;;;;;;38.17;26.32;98757.94;5049627;28;20033;-72
2023/06/15 10:55:56;;;;;;;2.30;1.92;;;;;;;40.01;24.68;98770.78;5058253;28;20077;-72
2023/06/15 10:58:22;;;;;;;3.58;2.10;;;;;;;39.76;24.33;98762.19;5068545;28;20502;-72
2023/06/15 11:01:15;;;;;;;6.55;1.95;;;;;;;40.78;25.38;98769.63;5065015;28;20128;-72
2023/06/15 11:03:41;;;;;;;1.83;1.60;;;;;;;41.84;23.56;98756.28;5059106;28;20094;-72
2023/06/15 11:06:17;;;;;;;2.30;1.55;;;;;;;43.59;23.20;98768.13;5071692;28;20104;-72
2023/06/15 11:08:52;;;;;;;3.28;2.00;;;;;;;42.90;22.65;98761.59;5052806;28;20062;-72
2023/06/15 11:11:35;;;;;;;4.93;1.90;;;;;;;42.16;23.64;98755.28;5073259;28;20028;-72
2023/06/15 11:14:04;;;;;;;4.03;1.67;;;;;;;42.99;22.95;98761.09;5072813;28;20044;-73
2023/06/15 11:16:30;;;;;;;1.98;1.67;;;;;;;44.23;22.24;98754.19;5050936;28;20542;-73
2023/06/15 11:18:58;;;;;;;1.63;1.52;;;;;;;44.71;22.33;98753.78;5043351;28;20036;-73
2023/06/15 11:21:26;;;;;;;5.32;1.95;;;;;;;43.69;21.69;98750.09;5053267;28;20028;-73
2023/06/15 11:23:57;;;;;;;2.67;1.88;;;;;;;41.91;22.56;98759.09;5051593;28;20121;-72
2023/06/15 11:26:27;;;;;;;2.00;1.80;;;;;;;42.37;22.55;98758.00;5054482;28;20048;-73